sensor_id;sensor_type;location;lat;lon;timestamp;temperature;humidity
11540;DHT22;5826;54.756;9.192;2022-07-22T00:02:05;17.10;99.90
11540;DHT22;5826;54.756;9.192;2022-07-22T00:04:31;17.10;99.90
11540;DHT22;5826;54.756;9.192;2022-07-22T00:06:57;17.20;99.90
11540;DHT22;5826;54.756;9.192;2022-07-22T00:09:22;17.20;99.90
11540;DHT22;5826;54.756;9.192;2022-07-22T00:11:48;17.20;99.90
11540;DHT22;5826;54.756;9.192;2022-07-22T00:14:14;17.20;99.90
11540;DHT22;5826;54.756;9.192;2022-07-22T00:16:40;17.20;99.90
11540;DHT22;5826;54.756;9.192;2022-07-22T00:19:05;17.20;99.90
11540;DHT22;5826;54.756;9.192;2022-07-22T00:21:31;17.20;99.90
11540;DHT22;5826;54.756;9.192;2022-07-22T00:23:57;17.20;99.90
11540;DHT22;5826;54.756;9.192;2022-07-22T00:26:22;17.20;99.90
11540;DHT22;5826;54.756;9.192;2022-07-22T00:28:48;17.20;99.90
11540;DHT22;5826;54.756;9.192;2022-07-22T00:31:13;17.10;99.90
11540;DHT22;5826;54.756;9.192;2022-07-22T00:33:39;17.10;99.90
11540;DHT22;5826;54.756;9.192;2022-07-22T00:36:05;17.10;99.90
11540;DHT22;5826;54.756;9.192;2022-07-22T00:38:32;17.10;99.90
11540;DHT22;5826;54.756;9.192;2022-07-22T00:40:57;17.10;99.90
11540;DHT22;5826;54.756;9.192;2022-07-22T00:43:23;17.00;99.90
11540;DHT22;5826;54.756;9.192;2022-07-22T00:45:48;17.10;99.90
11540;DHT22;5826;54.756;9.192;2022-07-22T00:48:14;17.10;99.90
11540;DHT22;5826;54.756;9.192;2022-07-22T00:50:39;17.10;99.90
11540;DHT22;5826;54.756;9.192;2022-07-22T00:53:05;17.10;99.90
11540;DHT22;5826;54.756;9.192;2022-07-22T00:55:32;17.10;99.90
11540;DHT22;5826;54.756;9.192;2022-07-22T00:57:58;17.10;99.90
11540;DHT22;5826;54.756;9.192;2022-07-22T01:00:23;17.20;99.90
11540;DHT22;5826;54.756;9.192;2022-07-22T01:02:49;17.20;99.90
11540;DHT22;5826;54.756;9.192;2022-07-22T01:05:14;17.20;99.90
11540;DHT22;5826;54.756;9.192;2022-07-22T01:07:40;17.20;99.90
11540;DHT22;5826;54.756;9.192;2022-07-22T01:10:06;17.20;99.90
11540;DHT22;5826;54.756;9.192;2022-07-22T01:12:32;17.20;99.90
11540;DHT22;5826;54.756;9.192;2022-07-22T01:14:57;17.20;99.90
11540;DHT22;5826;54.756;9.192;2022-07-22T01:17:23;17.20;99.90
11540;DHT22;5826;54.756;9.192;2022-07-22T01:19:50;17.20;99.90
11540;DHT22;5826;54.756;9.192;2022-07-22T01:22:15;17.20;99.90
11540;DHT22;5826;54.756;9.192;2022-07-22T01:24:41;17.20;99.90
11540;DHT22;5826;54.756;9.192;2022-07-22T01:27:06;17.20;99.90
11540;DHT22;5826;54.756;9.192;2022-07-22T01:29:32;17.20;99.90
11540;DHT22;5826;54.756;9.192;2022-07-22T01:31:57;17.20;99.90
11540;DHT22;5826;54.756;9.192;2022-07-22T01:34:23;17.20;99.90
11540;DHT22;5826;54.756;9.192;2022-07-22T01:36:49;17.20;99.90
11540;DHT22;5826;54.756;9.192;2022-07-22T01:39:15;17.20;99.90
11540;DHT22;5826;54.756;9.192;2022-07-22T01:41:40;17.20;99.90
11540;DHT22;5826;54.756;9.192;2022-07-22T01:44:06;17.20;99.90
11540;DHT22;5826;54.756;9.192;2022-07-22T01:46:32;17.20;99.90
11540;DHT22;5826;54.756;9.192;2022-07-22T01:48:57;17.20;99.90
11540;DHT22;5826;54.756;9.192;2022-07-22T01:51:23;17.10;99.90
11540;DHT22;5826;54.756;9.192;2022-07-22T01:53:49;17.20;99.90
11540;DHT22;5826;54.756;9.192;2022-07-22T01:56:14;17.20;99.90
11540;DHT22;5826;54.756;9.192;2022-07-22T01:58:40;17.20;99.90
11540;DHT22;5826;54.756;9.192;2022-07-22T02:01:06;17.20;99.90
11540;DHT22;5826;54.756;9.192;2022-07-22T02:03:32;17.20;99.90
11540;DHT22;5826;54.756;9.192;2022-07-22T02:05:58;17.10;99.90
11540;DHT22;5826;54.756;9.192;2022-07-22T02:08:23;17.10;99.90
11540;DHT22;5826;54.756;9.192;2022-07-22T02:10:49;17.10;99.90
11540;DHT22;5826;54.756;9.192;2022-07-22T02:13:15;17.10;99.90
11540;DHT22;5826;54.756;9.192;2022-07-22T02:15:42;17.10;99.90
11540;DHT22;5826;54.756;9.192;2022-07-22T02:18:16;17.10;99.90
11540;DHT22;5826;54.756;9.192;2022-07-22T02:20:42;17.10;99.90
11540;DHT22;5826;54.756;9.192;2022-07-22T02:23:07;17.10;99.90
11540;DHT22;5826;54.756;9.192;2022-07-22T02:25:34;17.00;99.90
11540;DHT22;5826;54.756;9.192;2022-07-22T02:28:00;17.10;99.90
11540;DHT22;5826;54.756;9.192;2022-07-22T02:30:25;17.00;99.90
11540;DHT22;5826;54.756;9.192;2022-07-22T02:32:51;17.00;99.90
11540;DHT22;5826;54.756;9.192;2022-07-22T02:35:16;17.00;99.90
11540;DHT22;5826;54.756;9.192;2022-07-22T02:37:42;17.00;99.90
11540;DHT22;5826;54.756;9.192;2022-07-22T02:40:08;17.00;99.90
11540;DHT22;5826;54.756;9.192;2022-07-22T02:42:34;17.00;99.90
11540;DHT22;5826;54.756;9.192;2022-07-22T02:44:59;17.00;99.90
11540;DHT22;5826;54.756;9.192;2022-07-22T02:47:25;17.00;99.90
11540;DHT22;5826;54.756;9.192;2022-07-22T02:49:51;17.00;99.90
11540;DHT22;5826;54.756;9.192;2022-07-22T02:52:17;16.90;99.90
11540;DHT22;5826;54.756;9.192;2022-07-22T02:54:42;16.90;99.90
11540;DHT22;5826;54.756;9.192;2022-07-22T02:57:08;16.90;99.90
11540;DHT22;5826;54.756;9.192;2022-07-22T02:59:33;16.90;99.90
11540;DHT22;5826;54.756;9.192;2022-07-22T03:01:59;16.90;99.90
11540;DHT22;5826;54.756;9.192;2022-07-22T03:04:24;16.90;99.90
11540;DHT22;5826;54.756;9.192;2022-07-22T03:06:50;16.90;99.90
11540;DHT22;5826;54.756;9.192;2022-07-22T03:09:15;16.90;99.90
11540;DHT22;5826;54.756;9.192;2022-07-22T03:11:41;16.90;99.90
11540;DHT22;5826;54.756;9.192;2022-07-22T03:14:06;16.90;99.90
11540;DHT22;5826;54.756;9.192;2022-07-22T03:16:32;16.90;99.90
11540;DHT22;5826;54.756;9.192;2022-07-22T03:18:57;16.90;99.90
11540;DHT22;5826;54.756;9.192;2022-07-22T03:21:23;16.90;99.90
11540;DHT22;5826;54.756;9.192;2022-07-22T03:23:49;16.90;99.90
11540;DHT22;5826;54.756;9.192;2022-07-22T03:26:21;16.90;99.90
11540;DHT22;5826;54.756;9.192;2022-07-22T03:28:47;16.90;99.90
11540;DHT22;5826;54.756;9.192;2022-07-22T03:31:13;16.80;99.90
11540;DHT22;5826;54.756;9.192;2022-07-22T03:33:38;16.80;99.90
11540;DHT22;5826;54.756;9.192;2022-07-22T03:36:04;16.80;99.90
11540;DHT22;5826;54.756;9.192;2022-07-22T03:38:34;16.80;99.90
11540;DHT22;5826;54.756;9.192;2022-07-22T03:40:59;16.80;99.90
11540;DHT22;5826;54.756;9.192;2022-07-22T03:43:25;16.80;99.90
11540;DHT22;5826;54.756;9.192;2022-07-22T03:45:50;16.80;99.90
11540;DHT22;5826;54.756;9.192;2022-07-22T03:48:16;16.80;99.90
11540;DHT22;5826;54.756;9.192;2022-07-22T03:50:41;16.90;99.90
11540;DHT22;5826;54.756;9.192;2022-07-22T03:53:07;16.90;99.90
11540;DHT22;5826;54.756;9.192;2022-07-22T03:55:32;16.90;99.90
11540;DHT22;5826;54.756;9.192;2022-07-22T03:57:58;16.80;99.90
11540;DHT22;5826;54.756;9.192;2022-07-22T04:00:23;16.80;99.90
11540;DHT22;5826;54.756;9.192;2022-07-22T04:02:49;16.80;99.90
11540;DHT22;5826;54.756;9.192;2022-07-22T04:05:14;16.80;99.90
11540;DHT22;5826;54.756;9.192;2022-07-22T04:07:40;16.80;99.90
11540;DHT22;5826;54.756;9.192;2022-07-22T04:10:06;16.80;99.90
11540;DHT22;5826;54.756;9.192;2022-07-22T04:12:40;16.80;99.90
11540;DHT22;5826;54.756;9.192;2022-07-22T04:15:06;16.80;99.90
11540;DHT22;5826;54.756;9.192;2022-07-22T04:17:33;16.80;99.90
11540;DHT22;5826;54.756;9.192;2022-07-22T04:19:59;16.80;99.90
11540;DHT22;5826;54.756;9.192;2022-07-22T04:22:26;16.80;99.90
11540;DHT22;5826;54.756;9.192;2022-07-22T04:24:52;16.80;99.90
11540;DHT22;5826;54.756;9.192;2022-07-22T04:27:17;16.80;99.90
11540;DHT22;5826;54.756;9.192;2022-07-22T04:29:43;16.70;99.90
11540;DHT22;5826;54.756;9.192;2022-07-22T04:32:08;16.80;99.90
11540;DHT22;5826;54.756;9.192;2022-07-22T04:34:34;16.70;99.90
11540;DHT22;5826;54.756;9.192;2022-07-22T04:36:59;16.70;99.90
11540;DHT22;5826;54.756;9.192;2022-07-22T04:39:25;16.70;99.90
11540;DHT22;5826;54.756;9.192;2022-07-22T04:41:50;16.80;99.90
11540;DHT22;5826;54.756;9.192;2022-07-22T04:44:16;16.80;99.90
11540;DHT22;5826;54.756;9.192;2022-07-22T04:46:41;16.80;99.90
11540;DHT22;5826;54.756;9.192;2022-07-22T04:49:07;16.80;99.90
11540;DHT22;5826;54.756;9.192;2022-07-22T04:51:32;16.90;99.90
11540;DHT22;5826;54.756;9.192;2022-07-22T04:53:58;16.90;99.90
11540;DHT22;5826;54.756;9.192;2022-07-22T04:56:23;16.90;99.90
11540;DHT22;5826;54.756;9.192;2022-07-22T04:58:49;17.00;99.90
11540;DHT22;5826;54.756;9.192;2022-07-22T05:01:14;17.00;99.90
11540;DHT22;5826;54.756;9.192;2022-07-22T05:03:41;17.00;99.90
11540;DHT22;5826;54.756;9.192;2022-07-22T05:06:06;17.00;99.90
11540;DHT22;5826;54.756;9.192;2022-07-22T05:08:32;17.00;99.90
11540;DHT22;5826;54.756;9.192;2022-07-22T05:10:58;17.00;99.90
11540;DHT22;5826;54.756;9.192;2022-07-22T05:13:23;17.00;99.90
11540;DHT22;5826;54.756;9.192;2022-07-22T05:15:49;17.00;99.90
11540;DHT22;5826;54.756;9.192;2022-07-22T05:18:14;17.00;99.90
11540;DHT22;5826;54.756;9.192;2022-07-22T05:20:40;17.00;99.90
11540;DHT22;5826;54.756;9.192;2022-07-22T05:23:06;17.00;99.90
11540;DHT22;5826;54.756;9.192;2022-07-22T05:25:31;17.00;99.90
11540;DHT22;5826;54.756;9.192;2022-07-22T05:27:57;17.00;99.90
11540;DHT22;5826;54.756;9.192;2022-07-22T05:30:22;17.00;99.90
11540;DHT22;5826;54.756;9.192;2022-07-22T05:32:48;17.10;99.90
11540;DHT22;5826;54.756;9.192;2022-07-22T05:35:14;17.20;99.90
11540;DHT22;5826;54.756;9.192;2022-07-22T05:37:39;17.20;99.90
11540;DHT22;5826;54.756;9.192;2022-07-22T05:40:05;17.30;99.90
11540;DHT22;5826;54.756;9.192;2022-07-22T05:42:31;17.40;99.90
11540;DHT22;5826;54.756;9.192;2022-07-22T05:44:56;17.40;99.90
11540;DHT22;5826;54.756;9.192;2022-07-22T05:47:22;17.40;99.90
11540;DHT22;5826;54.756;9.192;2022-07-22T05:49:47;17.50;99.90
11540;DHT22;5826;54.756;9.192;2022-07-22T05:52:13;17.50;99.90
11540;DHT22;5826;54.756;9.192;2022-07-22T05:54:38;17.60;99.90
11540;DHT22;5826;54.756;9.192;2022-07-22T05:57:05;17.70;99.90
11540;DHT22;5826;54.756;9.192;2022-07-22T05:59:33;17.80;99.90
11540;DHT22;5826;54.756;9.192;2022-07-22T06:01:59;17.90;99.90
11540;DHT22;5826;54.756;9.192;2022-07-22T06:04:24;17.90;99.90
11540;DHT22;5826;54.756;9.192;2022-07-22T06:06:50;17.90;99.90
11540;DHT22;5826;54.756;9.192;2022-07-22T06:09:15;17.90;99.90
11540;DHT22;5826;54.756;9.192;2022-07-22T06:11:41;17.90;99.90
11540;DHT22;5826;54.756;9.192;2022-07-22T06:14:06;17.80;99.90
11540;DHT22;5826;54.756;9.192;2022-07-22T06:16:32;17.70;99.90
11540;DHT22;5826;54.756;9.192;2022-07-22T06:18:59;17.70;99.90
11540;DHT22;5826;54.756;9.192;2022-07-22T06:21:25;17.60;99.90
11540;DHT22;5826;54.756;9.192;2022-07-22T06:23:50;17.50;99.90
11540;DHT22;5826;54.756;9.192;2022-07-22T06:26:15;17.40;99.90
11540;DHT22;5826;54.756;9.192;2022-07-22T06:28:41;17.40;99.90
11540;DHT22;5826;54.756;9.192;2022-07-22T06:31:06;17.40;99.90
11540;DHT22;5826;54.756;9.192;2022-07-22T06:33:32;17.40;99.90
11540;DHT22;5826;54.756;9.192;2022-07-22T06:35:59;17.40;99.90
11540;DHT22;5826;54.756;9.192;2022-07-22T06:38:25;17.50;99.90
11540;DHT22;5826;54.756;9.192;2022-07-22T06:40:50;17.50;99.90
11540;DHT22;5826;54.756;9.192;2022-07-22T06:43:16;17.50;99.90
11540;DHT22;5826;54.756;9.192;2022-07-22T06:45:41;17.50;99.90
11540;DHT22;5826;54.756;9.192;2022-07-22T06:48:07;17.50;99.90
11540;DHT22;5826;54.756;9.192;2022-07-22T06:50:32;17.60;99.90
11540;DHT22;5826;54.756;9.192;2022-07-22T06:52:58;17.70;99.90
11540;DHT22;5826;54.756;9.192;2022-07-22T06:55:23;17.70;99.90
11540;DHT22;5826;54.756;9.192;2022-07-22T06:57:49;17.90;99.90
11540;DHT22;5826;54.756;9.192;2022-07-22T07:00:15;17.90;99.90
11540;DHT22;5826;54.756;9.192;2022-07-22T07:02:41;18.00;99.90
11540;DHT22;5826;54.756;9.192;2022-07-22T07:05:06;18.10;99.90
11540;DHT22;5826;54.756;9.192;2022-07-22T07:07:32;18.10;99.90
11540;DHT22;5826;54.756;9.192;2022-07-22T07:09:57;18.00;99.90
11540;DHT22;5826;54.756;9.192;2022-07-22T07:12:23;17.90;99.90
11540;DHT22;5826;54.756;9.192;2022-07-22T07:14:49;17.90;99.90
11540;DHT22;5826;54.756;9.192;2022-07-22T07:17:14;18.00;99.90
11540;DHT22;5826;54.756;9.192;2022-07-22T07:19:41;18.00;99.90
11540;DHT22;5826;54.756;9.192;2022-07-22T07:22:06;18.00;99.90
11540;DHT22;5826;54.756;9.192;2022-07-22T07:24:32;18.00;99.90
11540;DHT22;5826;54.756;9.192;2022-07-22T07:26:57;18.00;99.90
11540;DHT22;5826;54.756;9.192;2022-07-22T07:29:23;18.00;99.90
11540;DHT22;5826;54.756;9.192;2022-07-22T07:31:48;18.20;99.90
11540;DHT22;5826;54.756;9.192;2022-07-22T07:34:14;18.30;99.90
11540;DHT22;5826;54.756;9.192;2022-07-22T07:36:39;18.40;99.90
11540;DHT22;5826;54.756;9.192;2022-07-22T07:39:05;18.50;99.90
11540;DHT22;5826;54.756;9.192;2022-07-22T07:41:31;18.50;99.90
11540;DHT22;5826;54.756;9.192;2022-07-22T07:43:57;18.50;99.90
11540;DHT22;5826;54.756;9.192;2022-07-22T07:46:22;18.50;99.90
11540;DHT22;5826;54.756;9.192;2022-07-22T07:48:48;18.50;99.90
11540;DHT22;5826;54.756;9.192;2022-07-22T07:51:14;18.60;99.90
11540;DHT22;5826;54.756;9.192;2022-07-22T07:53:40;18.60;99.90
11540;DHT22;5826;54.756;9.192;2022-07-22T07:56:05;18.70;99.90
11540;DHT22;5826;54.756;9.192;2022-07-22T07:58:31;18.80;99.90
11540;DHT22;5826;54.756;9.192;2022-07-22T08:00:56;18.90;99.90
11540;DHT22;5826;54.756;9.192;2022-07-22T08:03:22;18.90;99.90
11540;DHT22;5826;54.756;9.192;2022-07-22T08:05:47;18.90;99.90
11540;DHT22;5826;54.756;9.192;2022-07-22T08:08:13;18.90;99.90
11540;DHT22;5826;54.756;9.192;2022-07-22T08:10:38;19.00;99.90
11540;DHT22;5826;54.756;9.192;2022-07-22T08:13:05;18.90;99.90
11540;DHT22;5826;54.756;9.192;2022-07-22T08:15:31;18.90;99.90
11540;DHT22;5826;54.756;9.192;2022-07-22T08:17:57;18.80;99.90
11540;DHT22;5826;54.756;9.192;2022-07-22T08:20:24;18.80;99.90
11540;DHT22;5826;54.756;9.192;2022-07-22T08:22:50;18.80;99.90
11540;DHT22;5826;54.756;9.192;2022-07-22T08:25:16;18.80;99.90
11540;DHT22;5826;54.756;9.192;2022-07-22T08:27:42;18.80;99.90
11540;DHT22;5826;54.756;9.192;2022-07-22T08:30:07;18.80;99.90
11540;DHT22;5826;54.756;9.192;2022-07-22T08:32:34;18.70;99.90
11540;DHT22;5826;54.756;9.192;2022-07-22T08:35:00;18.60;99.90
11540;DHT22;5826;54.756;9.192;2022-07-22T08:37:26;18.60;99.90
11540;DHT22;5826;54.756;9.192;2022-07-22T08:39:51;18.60;99.90
11540;DHT22;5826;54.756;9.192;2022-07-22T08:42:22;18.60;99.90
11540;DHT22;5826;54.756;9.192;2022-07-22T08:44:48;18.60;99.90
11540;DHT22;5826;54.756;9.192;2022-07-22T08:47:14;18.60;99.90
11540;DHT22;5826;54.756;9.192;2022-07-22T08:49:40;18.60;99.90
11540;DHT22;5826;54.756;9.192;2022-07-22T08:52:05;18.60;99.90
11540;DHT22;5826;54.756;9.192;2022-07-22T08:54:31;18.70;99.90
11540;DHT22;5826;54.756;9.192;2022-07-22T08:56:56;18.70;99.90
11540;DHT22;5826;54.756;9.192;2022-07-22T08:59:22;18.80;99.90
11540;DHT22;5826;54.756;9.192;2022-07-22T09:02:09;18.90;99.90
11540;DHT22;5826;54.756;9.192;2022-07-22T09:04:59;19.00;99.90
11540;DHT22;5826;54.756;9.192;2022-07-22T09:07:30;19.00;99.90
11540;DHT22;5826;54.756;9.192;2022-07-22T09:09:57;19.00;99.90
11540;DHT22;5826;54.756;9.192;2022-07-22T09:12:24;19.10;99.90
11540;DHT22;5826;54.756;9.192;2022-07-22T09:14:54;19.20;99.90
11540;DHT22;5826;54.756;9.192;2022-07-22T09:19:54;19.60;99.90
11540;DHT22;5826;54.756;9.192;2022-07-22T09:22:35;19.60;99.90
11540;DHT22;5826;54.756;9.192;2022-07-22T09:27:46;19.50;99.90
11540;DHT22;5826;54.756;9.192;2022-07-22T09:30:17;19.50;99.90
11540;DHT22;5826;54.756;9.192;2022-07-22T09:32:44;19.40;99.90
11540;DHT22;5826;54.756;9.192;2022-07-22T09:35:11;19.40;99.90
11540;DHT22;5826;54.756;9.192;2022-07-22T09:37:38;19.30;99.90
11540;DHT22;5826;54.756;9.192;2022-07-22T09:40:15;19.30;99.90
11540;DHT22;5826;54.756;9.192;2022-07-22T09:42:53;19.20;99.90
11540;DHT22;5826;54.756;9.192;2022-07-22T09:45:20;19.20;99.90
11540;DHT22;5826;54.756;9.192;2022-07-22T09:47:47;19.20;99.90
11540;DHT22;5826;54.756;9.192;2022-07-22T09:50:22;19.20;99.90
11540;DHT22;5826;54.756;9.192;2022-07-22T09:52:51;19.30;99.90
11540;DHT22;5826;54.756;9.192;2022-07-22T09:55:19;19.50;99.90
11540;DHT22;5826;54.756;9.192;2022-07-22T09:57:45;19.60;99.90
11540;DHT22;5826;54.756;9.192;2022-07-22T10:00:17;19.70;99.90
11540;DHT22;5826;54.756;9.192;2022-07-22T10:05:14;20.10;99.90
11540;DHT22;5826;54.756;9.192;2022-07-22T10:07:42;20.20;99.90
11540;DHT22;5826;54.756;9.192;2022-07-22T10:10:10;20.10;99.90
11540;DHT22;5826;54.756;9.192;2022-07-22T10:12:36;20.00;99.90
11540;DHT22;5826;54.756;9.192;2022-07-22T10:15:03;19.80;99.90
11540;DHT22;5826;54.756;9.192;2022-07-22T10:17:29;19.70;99.90
11540;DHT22;5826;54.756;9.192;2022-07-22T10:19:56;19.80;99.90
11540;DHT22;5826;54.756;9.192;2022-07-22T10:25:10;19.80;99.90
11540;DHT22;5826;54.756;9.192;2022-07-22T10:28:06;19.70;99.90
11540;DHT22;5826;54.756;9.192;2022-07-22T10:30:37;19.60;99.90
11540;DHT22;5826;54.756;9.192;2022-07-22T10:33:19;19.60;99.90
11540;DHT22;5826;54.756;9.192;2022-07-22T10:35:56;19.50;99.90
11540;DHT22;5826;54.756;9.192;2022-07-22T10:38:23;19.50;99.90
11540;DHT22;5826;54.756;9.192;2022-07-22T10:40:54;19.50;99.90
11540;DHT22;5826;54.756;9.192;2022-07-22T10:43:23;19.60;99.90
11540;DHT22;5826;54.756;9.192;2022-07-22T10:45:58;19.60;99.90
11540;DHT22;5826;54.756;9.192;2022-07-22T10:51:20;19.70;99.90
11540;DHT22;5826;54.756;9.192;2022-07-22T10:56:32;19.70;99.90
11540;DHT22;5826;54.756;9.192;2022-07-22T10:59:16;19.60;99.90
11540;DHT22;5826;54.756;9.192;2022-07-22T11:01:47;19.60;99.90
11540;DHT22;5826;54.756;9.192;2022-07-22T11:04:18;19.60;99.90
11540;DHT22;5826;54.756;9.192;2022-07-22T11:06:46;19.60;99.90
11540;DHT22;5826;54.756;9.192;2022-07-22T11:09:13;19.60;99.90
11540;DHT22;5826;54.756;9.192;2022-07-22T11:11:49;19.80;99.90
11540;DHT22;5826;54.756;9.192;2022-07-22T11:14:17;19.80;99.90
11540;DHT22;5826;54.756;9.192;2022-07-22T11:16:44;19.80;99.90
11540;DHT22;5826;54.756;9.192;2022-07-22T11:19:11;19.70;99.90
11540;DHT22;5826;54.756;9.192;2022-07-22T11:21:36;19.50;99.90
11540;DHT22;5826;54.756;9.192;2022-07-22T11:24:04;19.40;99.90
11540;DHT22;5826;54.756;9.192;2022-07-22T11:26:44;19.40;99.90
11540;DHT22;5826;54.756;9.192;2022-07-22T11:29:16;19.40;99.90
11540;DHT22;5826;54.756;9.192;2022-07-22T11:31:42;19.40;99.90
11540;DHT22;5826;54.756;9.192;2022-07-22T11:36:37;19.40;99.90
11540;DHT22;5826;54.756;9.192;2022-07-22T11:39:04;19.40;99.90
11540;DHT22;5826;54.756;9.192;2022-07-22T11:41:31;19.40;99.90
11540;DHT22;5826;54.756;9.192;2022-07-22T11:43:57;19.40;99.90
11540;DHT22;5826;54.756;9.192;2022-07-22T11:46:23;19.50;99.90
11540;DHT22;5826;54.756;9.192;2022-07-22T11:48:54;19.40;99.90
11540;DHT22;5826;54.756;9.192;2022-07-22T11:51:28;19.40;99.90
11540;DHT22;5826;54.756;9.192;2022-07-22T11:53:54;19.50;99.90
11540;DHT22;5826;54.756;9.192;2022-07-22T11:56:19;19.50;99.90
11540;DHT22;5826;54.756;9.192;2022-07-22T11:58:47;19.50;99.90
11540;DHT22;5826;54.756;9.192;2022-07-22T12:01:15;19.50;99.90
11540;DHT22;5826;54.756;9.192;2022-07-22T12:03:46;19.50;99.90
11540;DHT22;5826;54.756;9.192;2022-07-22T12:06:13;19.50;99.90
11540;DHT22;5826;54.756;9.192;2022-07-22T12:08:42;19.40;99.90
11540;DHT22;5826;54.756;9.192;2022-07-22T12:11:10;19.40;99.90
11540;DHT22;5826;54.756;9.192;2022-07-22T12:13:36;19.20;99.90
11540;DHT22;5826;54.756;9.192;2022-07-22T12:16:26;19.20;99.90
11540;DHT22;5826;54.756;9.192;2022-07-22T12:21:30;19.00;99.90
11540;DHT22;5826;54.756;9.192;2022-07-22T12:24:07;19.00;99.90
11540;DHT22;5826;54.756;9.192;2022-07-22T12:29:25;19.20;99.90
11540;DHT22;5826;54.756;9.192;2022-07-22T12:31:53;19.20;99.90
11540;DHT22;5826;54.756;9.192;2022-07-22T12:34:37;19.20;99.90
11540;DHT22;5826;54.756;9.192;2022-07-22T12:37:18;19.30;99.90
11540;DHT22;5826;54.756;9.192;2022-07-22T12:40:00;19.30;99.90
11540;DHT22;5826;54.756;9.192;2022-07-22T12:42:28;19.30;99.90
11540;DHT22;5826;54.756;9.192;2022-07-22T12:47:48;19.20;99.90
11540;DHT22;5826;54.756;9.192;2022-07-22T12:50:20;19.20;99.90
11540;DHT22;5826;54.756;9.192;2022-07-22T12:52:48;19.20;99.90
11540;DHT22;5826;54.756;9.192;2022-07-22T12:55:14;19.20;99.90
11540;DHT22;5826;54.756;9.192;2022-07-22T12:57:39;19.20;99.90
11540;DHT22;5826;54.756;9.192;2022-07-22T13:00:05;19.10;99.90
11540;DHT22;5826;54.756;9.192;2022-07-22T13:02:31;18.90;99.90
11540;DHT22;5826;54.756;9.192;2022-07-22T13:04:57;18.90;99.90
11540;DHT22;5826;54.756;9.192;2022-07-22T13:07:22;18.90;99.90
11540;DHT22;5826;54.756;9.192;2022-07-22T13:09:48;18.90;99.90
11540;DHT22;5826;54.756;9.192;2022-07-22T13:12:13;18.90;99.90
11540;DHT22;5826;54.756;9.192;2022-07-22T13:14:39;19.00;99.90
11540;DHT22;5826;54.756;9.192;2022-07-22T13:17:04;19.00;99.90
11540;DHT22;5826;54.756;9.192;2022-07-22T13:19:30;19.00;99.90
11540;DHT22;5826;54.756;9.192;2022-07-22T13:21:55;19.10;99.90
11540;DHT22;5826;54.756;9.192;2022-07-22T13:24:21;19.10;99.90
11540;DHT22;5826;54.756;9.192;2022-07-22T13:26:46;19.10;99.90
11540;DHT22;5826;54.756;9.192;2022-07-22T13:29:12;19.00;99.90
11540;DHT22;5826;54.756;9.192;2022-07-22T13:31:37;19.00;99.90
11540;DHT22;5826;54.756;9.192;2022-07-22T13:34:03;19.00;99.90
11540;DHT22;5826;54.756;9.192;2022-07-22T13:36:28;19.00;99.90
11540;DHT22;5826;54.756;9.192;2022-07-22T13:38:57;19.00;99.90
11540;DHT22;5826;54.756;9.192;2022-07-22T13:41:23;19.00;99.90
11540;DHT22;5826;54.756;9.192;2022-07-22T13:43:48;18.90;99.90
11540;DHT22;5826;54.756;9.192;2022-07-22T13:46:14;18.80;99.90
11540;DHT22;5826;54.756;9.192;2022-07-22T13:48:40;18.80;99.90
11540;DHT22;5826;54.756;9.192;2022-07-22T13:51:06;18.80;99.90
11540;DHT22;5826;54.756;9.192;2022-07-22T13:53:31;18.70;99.90
11540;DHT22;5826;54.756;9.192;2022-07-22T13:55:57;18.60;99.90
11540;DHT22;5826;54.756;9.192;2022-07-22T13:58:22;18.60;99.90
11540;DHT22;5826;54.756;9.192;2022-07-22T14:00:48;18.60;99.90
11540;DHT22;5826;54.756;9.192;2022-07-22T14:03:13;18.60;99.90
11540;DHT22;5826;54.756;9.192;2022-07-22T14:05:39;18.70;99.90
11540;DHT22;5826;54.756;9.192;2022-07-22T14:08:04;18.70;99.90
11540;DHT22;5826;54.756;9.192;2022-07-22T14:10:30;18.80;99.90
11540;DHT22;5826;54.756;9.192;2022-07-22T14:12:56;18.90;99.90
11540;DHT22;5826;54.756;9.192;2022-07-22T14:15:21;19.00;99.90
11540;DHT22;5826;54.756;9.192;2022-07-22T14:17:47;19.00;99.90
11540;DHT22;5826;54.756;9.192;2022-07-22T14:20:12;19.00;99.90
11540;DHT22;5826;54.756;9.192;2022-07-22T14:22:38;19.00;99.90
11540;DHT22;5826;54.756;9.192;2022-07-22T14:25:04;18.90;99.90
11540;DHT22;5826;54.756;9.192;2022-07-22T14:27:29;18.90;99.90
11540;DHT22;5826;54.756;9.192;2022-07-22T14:29:55;18.80;99.90
11540;DHT22;5826;54.756;9.192;2022-07-22T14:32:20;18.80;99.90
11540;DHT22;5826;54.756;9.192;2022-07-22T14:34:46;18.80;99.90
11540;DHT22;5826;54.756;9.192;2022-07-22T14:37:11;18.70;99.90
11540;DHT22;5826;54.756;9.192;2022-07-22T14:39:37;18.70;99.90
11540;DHT22;5826;54.756;9.192;2022-07-22T14:42:03;18.70;99.90
11540;DHT22;5826;54.756;9.192;2022-07-22T14:44:28;18.60;99.90
11540;DHT22;5826;54.756;9.192;2022-07-22T14:46:54;18.70;99.90
11540;DHT22;5826;54.756;9.192;2022-07-22T14:49:19;18.70;99.90
11540;DHT22;5826;54.756;9.192;2022-07-22T14:51:45;18.80;99.90
11540;DHT22;5826;54.756;9.192;2022-07-22T14:54:10;18.80;99.90
11540;DHT22;5826;54.756;9.192;2022-07-22T14:56:39;18.80;99.90
11540;DHT22;5826;54.756;9.192;2022-07-22T14:59:06;18.70;99.90
11540;DHT22;5826;54.756;9.192;2022-07-22T15:01:32;18.70;99.90
11540;DHT22;5826;54.756;9.192;2022-07-22T15:03:57;18.60;99.90
11540;DHT22;5826;54.756;9.192;2022-07-22T15:06:22;18.60;99.90
11540;DHT22;5826;54.756;9.192;2022-07-22T15:08:49;18.50;99.90
11540;DHT22;5826;54.756;9.192;2022-07-22T15:11:14;18.50;99.90
11540;DHT22;5826;54.756;9.192;2022-07-22T15:13:40;18.50;99.90
11540;DHT22;5826;54.756;9.192;2022-07-22T15:16:05;18.50;99.90
11540;DHT22;5826;54.756;9.192;2022-07-22T15:18:31;18.40;99.90
11540;DHT22;5826;54.756;9.192;2022-07-22T15:20:56;18.40;99.90
11540;DHT22;5826;54.756;9.192;2022-07-22T15:23:24;18.40;99.90
11540;DHT22;5826;54.756;9.192;2022-07-22T15:25:54;18.40;99.90
11540;DHT22;5826;54.756;9.192;2022-07-22T15:28:20;18.50;99.90
11540;DHT22;5826;54.756;9.192;2022-07-22T15:30:45;18.40;99.90
11540;DHT22;5826;54.756;9.192;2022-07-22T15:33:11;18.40;99.90
11540;DHT22;5826;54.756;9.192;2022-07-22T15:35:36;18.40;99.90
11540;DHT22;5826;54.756;9.192;2022-07-22T15:38:02;18.50;99.90
11540;DHT22;5826;54.756;9.192;2022-07-22T15:40:27;18.50;99.90
11540;DHT22;5826;54.756;9.192;2022-07-22T15:42:53;18.50;99.90
11540;DHT22;5826;54.756;9.192;2022-07-22T15:45:18;18.50;99.90
11540;DHT22;5826;54.756;9.192;2022-07-22T15:47:44;18.40;99.90
11540;DHT22;5826;54.756;9.192;2022-07-22T15:50:09;18.40;99.90
11540;DHT22;5826;54.756;9.192;2022-07-22T15:52:35;18.30;99.90
11540;DHT22;5826;54.756;9.192;2022-07-22T15:55:00;18.20;99.90
11540;DHT22;5826;54.756;9.192;2022-07-22T15:57:26;18.20;99.90
11540;DHT22;5826;54.756;9.192;2022-07-22T16:00:10;18.20;99.90
11540;DHT22;5826;54.756;9.192;2022-07-22T16:02:36;18.10;99.90
11540;DHT22;5826;54.756;9.192;2022-07-22T16:05:02;18.20;99.90
11540;DHT22;5826;54.756;9.192;2022-07-22T16:07:28;18.20;99.90
11540;DHT22;5826;54.756;9.192;2022-07-22T16:09:53;18.20;99.90